Time;durP1;ratioP1;P1;durP2;ratioP2;P2;SDS_P1;SDS_P2;PMS_P1;PMS_P2;Temp;Humidity;BMP_temperature;BMP_pressure;BME280_temperature;BME280_humidity;BME280_pressure;Samples;Min_cycle;Max_cycle;Signal;HPM_P1;HPM_P2
2020/12/08 00:01:01;;;;;;;22.30;13.48;;;;;;;1.93;100.00;100251.25;6247167;28;20045;-74
2020/12/08 00:04:02;;;;;;;22.88;12.00;;;;;;;1.90;100.00;100246.13;6246429;28;20049;-74
2020/12/08 00:07:03;;;;;;;19.83;12.88;;;;;;;1.93;100.00;100240.88;6247368;28;20045;-74
2020/12/08 00:10:04;;;;;;;20.92;12.82;;;;;;;1.92;100.00;100240.03;6246489;28;20068;-74
2020/12/08 00:13:06;;;;;;;21.35;13.40;;;;;;;1.93;100.00;100246.06;6247142;28;20060;-73
2020/12/08 00:16:07;;;;;;;21.52;13.15;;;;;;;1.91;100.00;100238.34;6246733;28;20060;-74
2020/12/08 00:19:10;;;;;;;23.70;15.05;;;;;;;1.88;100.00;100233.22;6246804;28;20057;-74
2020/12/08 00:22:12;;;;;;;23.65;14.40;;;;;;;1.83;100.00;100226.47;6246611;28;20053;-74
2020/12/08 00:25:14;;;;;;;22.60;13.77;;;;;;;1.87;100.00;100230.69;6246855;28;20056;-74
2020/12/08 00:28:16;;;;;;;23.10;13.70;;;;;;;1.90;100.00;100228.84;6246410;28;20061;-74
2020/12/08 00:31:24;;;;;;;21.58;14.27;;;;;;;1.95;100.00;100231.31;6246300;28;20391;-74
2020/12/08 00:34:25;;;;;;;21.27;13.57;;;;;;;1.98;100.00;100229.50;6243012;28;20789;-74
2020/12/08 00:37:26;;;;;;;21.42;13.43;;;;;;;2.03;100.00;100230.22;6246254;28;20050;-74
2020/12/08 00:40:27;;;;;;;24.80;14.30;;;;;;;2.08;100.00;100226.66;6246035;28;20129;-74
2020/12/08 00:43:28;;;;;;;20.23;13.73;;;;;;;2.09;100.00;100228.34;6246419;28;20128;-73
2020/12/08 00:46:29;;;;;;;23.67;14.40;;;;;;;2.10;100.00;100220.56;6246341;28;20057;-74
2020/12/08 00:49:30;;;;;;;23.25;14.98;;;;;;;2.12;100.00;100213.59;6246168;28;20053;-74
2020/12/08 00:52:31;;;;;;;22.52;14.95;;;;;;;2.14;100.00;100221.34;6246670;28;20061;-74
2020/12/08 00:55:32;;;;;;;21.90;13.60;;;;;;;2.15;100.00;100217.84;6246312;28;20425;-73
2020/12/08 00:58:33;;;;;;;21.15;12.95;;;;;;;2.18;100.00;100221.22;6246073;28;20057;-74
2020/12/08 01:01:36;;;;;;;22.30;13.82;;;;;;;2.19;100.00;100219.47;6246060;28;20490;-74
2020/12/08 01:04:36;;;;;;;22.17;13.43;;;;;;;2.20;100.00;100228.94;6245924;28;20425;-74
2020/12/08 01:07:38;;;;;;;24.70;15.15;;;;;;;2.21;100.00;100221.09;6246471;28;20053;-74
2020/12/08 01:10:39;;;;;;;22.17;14.43;;;;;;;2.21;100.00;100236.66;6245443;28;20053;-73
2020/12/08 01:13:40;;;;;;;27.58;14.90;;;;;;;2.21;100.00;100231.47;6246134;28;20649;-73
2020/12/08 01:16:42;;;;;;;23.50;14.63;;;;;;;2.25;100.00;100237.44;6250673;28;20046;-73
2020/12/08 01:19:42;;;;;;;21.42;13.90;;;;;;;2.27;100.00;100233.03;6250892;28;20056;-73
2020/12/08 01:22:43;;;;;;;22.38;13.48;;;;;;;2.29;100.00;100242.50;6251039;28;20426;-74
2020/12/08 01:25:44;;;;;;;25.95;14.73;;;;;;;2.29;100.00;100245.09;6251050;28;20048;-74
2020/12/08 01:28:46;;;;;;;24.33;13.77;;;;;;;2.31;100.00;100257.16;6250229;28;20569;-74
2020/12/08 01:31:47;;;;;;;24.88;14.43;;;;;;;2.33;100.00;100261.41;6251062;28;20053;-74
2020/12/08 01:34:47;;;;;;;22.95;14.18;;;;;;;2.35;100.00;100254.44;6250586;28;20053;-74
2020/12/08 01:37:48;;;;;;;21.65;14.38;;;;;;;2.37;100.00;100257.00;6250354;28;20050;-74
2020/12/08 01:40:52;;;;;;;24.55;14.68;;;;;;;2.34;100.00;100259.66;6250307;28;20057;-74
2020/12/08 01:43:54;;;;;;;23.08;14.32;;;;;;;2.34;100.00;100259.66;6250521;28;20045;-73
2020/12/08 01:46:55;;;;;;;20.70;13.40;;;;;;;2.37;100.00;100263.03;6250260;28;20184;-74
2020/12/08 01:49:56;;;;;;;23.05;14.85;;;;;;;2.41;100.00;100269.00;6250097;28;20053;-73
2020/12/08 01:52:57;;;;;;;23.77;14.25;;;;;;;2.43;100.00;100273.22;6250285;28;20100;-75
2020/12/08 01:55:58;;;;;;;21.60;13.80;;;;;;;2.42;100.00;100268.94;6250012;28;20041;-74
2020/12/08 01:58:59;;;;;;;24.92;15.10;;;;;;;2.40;100.00;100264.66;6249892;28;20049;-74
2020/12/08 02:02:00;;;;;;;23.02;14.52;;;;;;;2.39;100.00;100258.63;6250211;28;20449;-74
2020/12/08 02:05:01;;;;;;;24.80;14.95;;;;;;;2.39;100.00;100258.63;6249710;28;20053;-74
2020/12/08 02:08:02;;;;;;;24.15;14.45;;;;;;;2.39;100.00;100256.03;6249867;28;20045;-74
2020/12/08 02:11:04;;;;;;;23.52;13.77;;;;;;;2.39;100.00;100255.19;6249494;28;20052;-74
2020/12/08 02:14:06;;;;;;;23.20;13.85;;;;;;;2.39;100.00;100255.19;6249876;28;20053;-74
2020/12/08 02:17:07;;;;;;;30.55;14.18;;;;;;;2.39;100.00;100256.03;6249413;28;20446;-74
2020/12/08 02:20:09;;;;;;;25.50;15.10;;;;;;;2.39;100.00;100250.84;6249485;28;20103;-74
2020/12/08 02:23:10;;;;;;;25.33;15.95;;;;;;;2.40;100.00;100252.56;6249520;28;20489;-74
2020/12/08 02:26:11;;;;;;;28.65;15.35;;;;;;;2.41;100.00;100256.03;6249081;28;20053;-73
2020/12/08 02:29:12;;;;;;;23.63;14.10;;;;;;;2.40;100.00;100255.16;6249186;28;20513;-74
2020/12/08 02:32:12;;;;;;;28.65;15.68;;;;;;;2.40;100.00;100249.97;6249467;28;20052;-74
2020/12/08 02:35:14;;;;;;;27.27;14.30;;;;;;;2.35;100.00;100246.66;6249287;28;20099;-74
2020/12/08 02:38:15;;;;;;;27.05;14.50;;;;;;;2.35;100.00;100246.66;6248744;28;20049;-74
2020/12/08 02:41:16;;;;;;;25.20;15.10;;;;;;;2.36;100.00;100245.75;6248894;28;20059;-74
2020/12/08 02:44:17;;;;;;;27.70;15.43;;;;;;;2.35;100.00;100241.47;6249162;28;20049;-74
2020/12/08 02:47:17;;;;;;;24.77;15.65;;;;;;;2.37;100.00;100246.63;6248997;28;20060;-73
2020/12/08 02:50:19;;;;;;;25.77;14.90;;;;;;;2.37;100.00;100252.66;6248725;28;20050;-74
2020/12/08 02:53:20;;;;;;;25.42;15.20;;;;;;;2.39;100.00;100252.59;6248945;28;20054;-74
2020/12/08 02:56:24;;;;;;;26.48;14.93;;;;;;;2.39;100.00;100250.84;6248708;28;20049;-74
2020/12/08 02:59:25;;;;;;;23.10;14.55;;;;;;;2.41;100.00;100266.41;6248556;28;20045;-74
2020/12/08 03:02:26;;;;;;;23.05;14.68;;;;;;;2.40;100.00;100257.75;6248856;28;20144;-77
2020/12/08 03:05:27;;;;;;;24.95;15.13;;;;;;;2.41;100.00;100256.88;6248138;28;20052;-74
2020/12/08 03:08:28;;;;;;;21.85;13.93;;;;;;;2.41;100.00;100269.00;6248432;28;20060;-74
2020/12/08 03:11:32;;;;;;;26.30;14.57;;;;;;;2.42;100.00;100270.69;6246373;28;20053;-73
2020/12/08 03:14:33;;;;;;;23.60;14.68;;;;;;;2.42;100.00;100268.94;6246651;28;20048;-74
2020/12/08 03:17:34;;;;;;;24.50;14.70;;;;;;;2.45;100.00;100271.47;6248021;28;20403;-74
2020/12/08 03:20:36;;;;;;;26.17;14.77;;;;;;;2.47;100.00;100271.41;6248062;28;20521;-74
2020/12/08 03:23:37;;;;;;;24.45;14.45;;;;;;;2.48;100.00;100268.75;6248306;28;20049;-74
2020/12/08 03:26:38;;;;;;;26.73;14.52;;;;;;;2.49;100.00;100270.44;6247841;28;20418;-73
2020/12/08 03:29:38;;;;;;;23.95;14.65;;;;;;;2.49;100.00;100267.00;6247792;28;20057;-74
2020/12/08 03:32:39;;;;;;;23.92;14.45;;;;;;;2.49;100.00;100275.63;6247898;28;20123;-74
2020/12/08 03:35:41;;;;;;;23.27;14.20;;;;;;;2.50;100.00;100272.16;6247516;28;20622;-74
2020/12/08 03:38:42;;;;;;;22.80;13.40;;;;;;;2.50;100.00;100274.75;6246521;28;20049;-73
2020/12/08 03:41:43;;;;;;;24.80;14.80;;;;;;;2.49;100.00;100267.84;6247860;28;20060;-74
2020/12/08 03:44:44;;;;;;;22.92;13.52;;;;;;;2.51;100.00;100267.84;6247396;28;20049;-74
2020/12/08 03:47:45;;;;;;;21.63;13.18;;;;;;;2.52;100.00;100270.38;6247533;28;20621;-74
2020/12/08 03:50:47;;;;;;;25.58;14.55;;;;;;;2.52;100.00;100266.94;6247092;28;20132;-74
2020/12/08 03:53:48;;;;;;;24.42;14.73;;;;;;;2.52;100.00;100270.38;6247285;28;20490;-74
2020/12/08 03:56:49;;;;;;;24.20;14.27;;;;;;;2.52;100.00;100283.34;6247357;28;20072;-74
2020/12/08 03:59:50;;;;;;;26.20;14.90;;;;;;;2.53;100.00;100282.44;6247002;28;20045;-74
2020/12/08 04:02:51;;;;;;;22.77;13.95;;;;;;;2.53;100.00;100276.41;6247526;28;20045;-74
2020/12/08 04:05:53;;;;;;;23.45;14.30;;;;;;;2.56;100.00;100285.84;6246848;28;20476;-74
2020/12/08 04:08:53;;;;;;;23.65;15.00;;;;;;;2.54;100.00;100268.59;6247011;28;20053;-74
2020/12/08 04:11:54;;;;;;;24.35;14.88;;;;;;;2.54;100.00;100270.31;6246823;28;20056;-74
2020/12/08 04:14:55;;;;;;;22.20;13.60;;;;;;;2.54;100.00;100262.53;6247185;28;20053;-74
2020/12/08 04:17:56;;;;;;;29.35;15.13;;;;;;;2.55;100.00;100274.63;6246817;28;20045;-74
2020/12/08 04:20:58;;;;;;;23.92;13.60;;;;;;;2.55;100.00;100277.22;6246534;28;20050;-74
2020/12/08 04:24:00;;;;;;;26.63;15.25;;;;;;;2.57;100.00;100279.78;6246871;28;20092;-74
2020/12/08 04:27:01;;;;;;;24.20;13.95;;;;;;;2.57;100.00;100272.84;6246514;28;20045;-74
2020/12/08 04:30:01;;;;;;;24.50;14.63;;;;;;;2.57;100.00;100279.78;6246402;28;20049;-73
2020/12/08 04:33:02;;;;;;;24.27;14.68;;;;;;;2.57;100.00;100277.19;6246681;28;20077;-74
2020/12/08 04:36:09;;;;;;;23.35;13.52;;;;;;;2.57;100.00;100283.22;6246068;28;20119;-74
2020/12/08 04:39:10;;;;;;;22.10;13.68;;;;;;;2.59;100.00;100283.16;6246366;28;20056;-74
2020/12/08 04:42:12;;;;;;;23.02;13.82;;;;;;;2.59;100.00;100283.16;6246718;28;20050;-74
2020/12/08 04:45:14;;;;;;;22.85;13.68;;;;;;;2.57;100.00;100283.22;6246584;28;20060;-74
2020/12/08 04:48:14;;;;;;;26.23;14.50;;;;;;;2.53;100.00;100277.25;6246179;28;20056;-74
2020/12/08 04:51:17;;;;;;;22.67;13.45;;;;;;;2.53;100.00;100279.00;6246124;28;20421;-74
2020/12/08 04:54:18;;;;;;;20.45;13.13;;;;;;;2.56;100.00;100280.66;6246347;28;20053;-74
2020/12/08 04:57:19;;;;;;;24.52;14.07;;;;;;;2.57;100.00;100280.63;6246182;28;20056;-74
2020/12/08 05:00:20;;;;;;;22.45;13.20;;;;;;;2.58;100.00;100284.06;6245943;28;20421;-75
2020/12/08 05:03:28;;;;;;;22.20;13.57;;;;;;;2.54;100.00;100281.56;6301232;23;20053;-74
2020/12/08 05:06:30;;;;;;;25.65;14.07;;;;;;;2.58;100.00;100277.13;6220849;28;20192;-77
2020/12/08 05:09:31;;;;;;;27.02;14.20;;;;;;;2.59;100.00;100281.44;6233744;28;20079;-76
2020/12/08 05:12:32;;;;;;;23.40;14.13;;;;;;;2.60;100.00;100274.50;6243727;28;20046;-76
2020/12/08 05:15:33;;;;;;;25.00;14.25;;;;;;;2.58;100.00;100273.69;6221688;28;20184;-76
2020/12/08 05:18:35;;;;;;;22.90;14.38;;;;;;;2.58;100.00;100271.09;6221266;28;20083;-76
2020/12/08 05:21:47;;;;;;;24.48;14.27;;;;;;;2.59;100.00;100273.66;6221834;28;20050;-76
2020/12/08 05:24:48;;;;;;;24.73;14.07;;;;;;;2.61;100.00;100268.41;6221379;28;20050;-74
2020/12/08 05:27:50;;;;;;;22.65;13.88;;;;;;;2.60;100.00;100270.16;6221364;28;20057;-76
2020/12/08 05:30:51;;;;;;;24.40;13.98;;;;;;;2.61;100.00;100269.25;6220918;28;20465;-76
2020/12/08 05:33:57;;;;;;;27.00;15.55;;;;;;;2.62;100.00;100270.97;6235747;28;20052;-76
2020/12/08 05:37:00;;;;;;;23.48;14.15;;;;;;;2.61;100.00;100269.25;6245560;28;20057;-76
2020/12/08 05:40:05;;;;;;;27.52;15.07;;;;;;;2.62;100.00;100277.91;6245749;28;20061;-76
2020/12/08 05:43:08;;;;;;;23.88;14.88;;;;;;;2.60;100.00;100275.34;6245486;28;20049;-75
2020/12/08 05:46:10;;;;;;;36.42;17.58;;;;;;;2.61;100.00;100282.22;6245746;28;20502;-76
2020/12/08 05:49:13;;;;;;;28.50;15.52;;;;;;;2.63;100.00;100277.00;6245434;28;20497;-76
2020/12/08 05:52:19;;;;;;;25.30;15.55;;;;;;;2.64;100.00;100279.56;6245951;28;20048;-76
2020/12/08 05:55:21;;;;;;;25.20;15.10;;;;;;;2.65;100.00;100280.41;6245675;28;20046;-76
2020/12/08 05:58:22;;;;;;;24.90;14.80;;;;;;;2.65;100.00;100275.22;6245445;28;20050;-76
2020/12/08 06:01:23;;;;;;;24.38;15.50;;;;;;;2.68;100.00;100281.19;6247880;28;20118;-76
2020/12/08 06:04:24;;;;;;;28.10;16.17;;;;;;;2.71;100.00;100288.00;6249552;28;20429;-76
2020/12/08 06:07:30;;;;;;;25.67;14.98;;;;;;;2.70;100.00;100288.91;6249246;28;20049;-76
2020/12/08 06:10:31;;;;;;;24.58;14.90;;;;;;;2.65;100.00;100291.63;6249016;28;20045;-76
2020/12/08 06:13:33;;;;;;;27.00;15.77;;;;;;;2.62;100.00;100290.88;6249461;28;20536;-77
2020/12/08 06:16:34;;;;;;;22.77;14.45;;;;;;;2.64;100.00;100289.94;6249521;28;20072;-76
2020/12/08 06:19:35;;;;;;;25.17;15.57;;;;;;;2.64;100.00;100289.09;6249412;28;20053;-76
2020/12/08 06:22:37;;;;;;;29.27;15.13;;;;;;;2.67;100.00;100295.03;6249678;28;20494;-76
2020/12/08 06:25:38;;;;;;;27.85;14.60;;;;;;;2.68;100.00;100293.28;6249774;28;20045;-76
2020/12/08 06:28:39;;;;;;;23.95;14.48;;;;;;;2.69;100.00;100293.25;6248984;28;20433;-76
2020/12/08 06:31:41;;;;;;;31.60;16.55;;;;;;;2.67;100.00;100295.03;6249149;28;20181;-76
2020/12/08 06:34:42;;;;;;;27.92;16.10;;;;;;;2.69;100.00;100295.00;6248625;28;20079;-76
2020/12/08 06:37:47;;;;;;;29.27;14.82;;;;;;;2.65;100.00;100289.03;6248756;28;20060;-76
2020/12/08 06:40:51;;;;;;;29.80;15.90;;;;;;;2.66;100.00;100298.53;6248626;28;20513;-76
2020/12/08 06:43:52;;;;;;;30.20;14.98;;;;;;;2.68;100.00;100303.66;6248596;28;20651;-76
2020/12/08 06:46:54;;;;;;;25.95;14.63;;;;;;;2.68;100.00;100306.25;6248596;28;20053;-76
2020/12/08 06:49:55;;;;;;;24.25;13.75;;;;;;;2.69;100.00;100315.75;6248097;28;20054;-76
2020/12/08 06:52:59;;;;;;;26.42;14.98;;;;;;;2.64;100.00;100308.09;6248595;28;20052;-76
2020/12/08 06:55:59;;;;;;;27.75;15.52;;;;;;;2.63;100.00;100315.91;6247904;28;20048;-76
2020/12/08 06:59:00;;;;;;;30.23;16.58;;;;;;;2.60;100.00;100318.59;6224010;28;20125;-76
2020/12/08 07:02:01;;;;;;;23.23;14.32;;;;;;;2.62;100.00;100324.59;6236238;28;20049;-75
2020/12/08 07:05:04;;;;;;;35.88;16.40;;;;;;;2.60;100.00;100321.19;6247738;28;20045;-76
2020/12/08 07:08:07;;;;;;;28.08;16.52;;;;;;;2.58;100.00;100322.97;6247931;28;20490;-76
2020/12/08 07:11:16;;;;;;;25.02;13.70;;;;;;;2.61;100.00;100330.69;6247225;28;20056;-76
2020/12/08 07:14:26;;;;;;;25.40;15.30;;;;;;;2.59;100.00;100330.72;6247411;28;20610;-76
2020/12/08 07:17:30;;;;;;;26.92;14.52;;;;;;;2.54;100.00;100329.97;6245472;28;20049;-76
2020/12/08 07:20:32;;;;;;;34.10;20.08;;;;;;;2.48;100.00;100327.56;6248011;28;20057;-76
2020/12/08 07:23:39;;;;;;;31.75;17.58;;;;;;;2.47;100.00;100331.91;6248143;28;20045;-76
2020/12/08 07:26:41;;;;;;;27.20;14.88;;;;;;;2.43;100.00;100335.47;6248121;28;20136;-76
2020/12/08 07:29:42;;;;;;;34.05;18.20;;;;;;;2.40;100.00;100332.09;6247667;28;20060;-76
2020/12/08 07:32:43;;;;;;;29.88;15.73;;;;;;;2.40;100.00;100338.13;6247553;28;20054;-76
2020/12/08 07:35:45;;;;;;;24.83;14.77;;;;;;;2.36;100.00;100333.06;6247667;28;20052;-76
2020/12/08 07:38:50;;;;;;;25.95;15.05;;;;;;;2.35;100.00;100339.13;6247520;28;20049;-76
2020/12/08 07:42:02;;;;;;;26.63;14.85;;;;;;;2.37;100.00;100337.38;6247792;28;20144;-76
2020/12/08 07:45:07;;;;;;;27.58;15.30;;;;;;;2.40;100.00;100340.72;6247883;28;20056;-75
2020/12/08 07:48:11;;;;;;;27.77;15.07;;;;;;;2.43;100.00;100344.97;6247359;28;20218;-75
2020/12/08 07:51:11;;;;;;;26.73;14.73;;;;;;;2.48;100.00;100332.75;6247389;28;20060;-75
2020/12/08 07:54:13;;;;;;;29.05;15.40;;;;;;;2.50;100.00;100333.56;6247350;28;20053;-75
2020/12/08 07:57:14;;;;;;;26.17;15.07;;;;;;;2.52;100.00;100332.63;6247461;28;20049;-75
2020/12/08 08:00:15;;;;;;;25.30;14.88;;;;;;;2.52;100.00;100337.81;6247108;28;20057;-74
2020/12/08 08:03:16;;;;;;;25.70;14.88;;;;;;;2.54;100.00;100342.94;6246849;28;20499;-75
2020/12/08 08:06:18;;;;;;;27.77;15.90;;;;;;;2.58;100.00;100344.56;6246872;28;20050;-74
2020/12/08 08:09:19;;;;;;;27.25;14.80;;;;;;;2.60;100.00;100337.59;6246868;28;20130;-74
2020/12/08 08:12:20;;;;;;;25.73;14.98;;;;;;;2.63;100.00;100347.03;6247032;28;20395;-75
2020/12/08 08:15:21;;;;;;;29.25;15.95;;;;;;;2.61;100.00;100348.84;6247026;28;20046;-75
2020/12/08 08:18:22;;;;;;;29.02;16.10;;;;;;;2.63;100.00;100347.88;6246782;28;20119;-74
2020/12/08 08:21:22;;;;;;;26.38;15.43;;;;;;;2.64;100.00;100346.16;6246610;28;20045;-74
2020/12/08 08:24:24;;;;;;;30.48;15.82;;;;;;;2.65;100.00;100347.84;6246511;28;20065;-75
2020/12/08 08:27:25;;;;;;;30.23;17.17;;;;;;;2.64;99.97;100349.59;6246637;28;20490;-75
2020/12/08 08:30:26;;;;;;;27.17;15.65;;;;;;;2.68;100.00;100348.63;6246233;28;20056;-75
2020/12/08 08:33:27;;;;;;;27.95;15.75;;;;;;;2.69;100.00;100350.31;6246026;28;20521;-75
2020/12/08 08:36:29;;;;;;;32.45;17.75;;;;;;;2.72;100.00;100346.78;6246170;28;20529;-74
2020/12/08 08:39:30;;;;;;;27.15;15.75;;;;;;;2.75;100.00;100351.91;6246377;28;20052;-74
2020/12/08 08:42:31;;;;;;;28.77;16.33;;;;;;;2.76;100.00;100351.00;6246471;28;20053;-74
2020/12/08 08:45:32;;;;;;;31.20;17.83;;;;;;;2.75;100.00;100365.72;6246565;28;20052;-75
2020/12/08 08:48:33;;;;;;;32.88;17.67;;;;;;;2.73;99.99;100361.47;6245394;28;20053;-75
2020/12/08 08:51:34;;;;;;;26.52;15.40;;;;;;;2.75;100.00;100354.50;6245144;28;20108;-75
2020/12/08 08:54:35;;;;;;;28.75;16.30;;;;;;;2.74;100.00;100345.84;6245968;28;20052;-75
2020/12/08 08:57:36;;;;;;;30.55;17.27;;;;;;;2.77;100.00;100361.34;6246097;28;20057;-75
2020/12/08 09:00:37;;;;;;;31.58;18.10;;;;;;;2.77;99.91;100357.88;6245518;28;20111;-74
2020/12/08 09:03:40;;;;;;;35.35;17.60;;;;;;;2.76;100.00;100346.66;6245981;28;20418;-75
2020/12/08 09:06:40;;;;;;;30.05;17.10;;;;;;;2.80;100.00;100356.06;6246093;28;20052;-75
2020/12/08 09:09:42;;;;;;;36.00;19.00;;;;;;;2.85;100.00;100358.53;6245450;28;20506;-74
2020/12/08 09:12:43;;;;;;;39.55;18.27;;;;;;;2.87;100.00;100361.94;6243711;28;20049;-75
2020/12/08 09:15:44;;;;;;;31.95;18.60;;;;;;;2.90;100.00;100361.84;6245873;28;20045;-75
2020/12/08 09:18:45;;;;;;;39.50;18.95;;;;;;;2.89;99.62;100362.75;6237172;28;20058;-74
2020/12/08 09:21:49;;;;;;;39.38;18.95;;;;;;;2.92;100.00;100362.66;6245722;28;20053;-75
2020/12/08 09:24:51;;;;;;;43.13;18.83;;;;;;;2.95;99.62;100360.00;6245773;28;20057;-75
2020/12/08 09:27:52;;;;;;;34.90;19.17;;;;;;;3.00;99.82;100365.91;6245637;28;20564;-75
2020/12/08 09:30:53;;;;;;;39.60;18.40;;;;;;;2.99;99.67;100366.78;6242606;28;20053;-73
2020/12/08 09:33:54;;;;;;;40.17;19.95;;;;;;;3.00;99.48;100372.84;6245583;28;20494;-74
2020/12/08 09:36:56;;;;;;;34.70;18.92;;;;;;;2.96;99.34;100374.66;6248891;28;20049;-73
2020/12/08 09:39:58;;;;;;;32.33;17.90;;;;;;;2.99;99.90;100377.16;6250278;28;20482;-73
2020/12/08 09:42:59;;;;;;;36.20;19.17;;;;;;;3.05;99.89;100373.56;6249551;28;20073;-74
2020/12/08 09:46:00;;;;;;;34.05;18.60;;;;;;;3.11;99.51;100369.94;6249925;28;20501;-74
2020/12/08 09:49:01;;;;;;;42.40;20.02;;;;;;;3.10;99.22;100374.28;6249585;28;20140;-74
2020/12/08 09:52:04;;;;;;;33.70;19.02;;;;;;;3.11;99.04;100373.38;6250179;28;20053;-74
2020/12/08 09:55:07;;;;;;;40.28;19.23;;;;;;;3.16;99.27;100370.63;6250098;28;20052;-73
2020/12/08 09:58:09;;;;;;;42.70;18.80;;;;;;;3.19;99.33;100375.75;6249679;28;20064;-74
2020/12/08 10:01:10;;;;;;;31.83;17.58;;;;;;;3.27;99.22;100373.75;6249675;28;20514;-74
2020/12/08 10:04:11;;;;;;;30.13;17.30;;;;;;;3.41;97.33;100373.38;6249212;28;20346;-74
2020/12/08 10:07:14;;;;;;;34.83;19.73;;;;;;;3.43;96.38;100369.81;6249264;28;20555;-75
2020/12/08 10:10:16;;;;;;;31.35;18.42;;;;;;;3.42;96.89;100375.91;6249509;28;20140;-75
2020/12/08 10:13:17;;;;;;;32.53;18.00;;;;;;;3.45;96.62;100373.25;6249318;28;20056;-74
2020/12/08 10:16:19;;;;;;;36.25;18.13;;;;;;;3.41;96.95;100368.19;6236872;28;20477;-74
2020/12/08 10:19:20;;;;;;;33.35;18.40;;;;;;;3.44;96.87;100376.72;6224901;28;20138;-74
2020/12/08 10:22:21;;;;;;;31.88;17.77;;;;;;;3.51;97.30;100373.03;6225180;28;20470;-75
2020/12/08 10:25:22;;;;;;;32.08;17.85;;;;;;;3.59;97.16;100361.56;6224832;28;20053;-75
2020/12/08 10:28:23;;;;;;;29.52;16.77;;;;;;;3.65;96.50;100369.19;6224445;28;20049;-75
2020/12/08 10:31:24;;;;;;;27.70;16.52;;;;;;;3.73;96.65;100369.78;6224330;28;20514;-74
2020/12/08 10:34:25;;;;;;;31.58;17.85;;;;;;;3.73;95.62;100372.41;6224747;28;20046;-75
2020/12/08 10:37:27;;;;;;;32.00;17.73;;;;;;;3.67;95.36;100370.81;6229898;28;20068;-75
2020/12/08 10:40:28;;;;;;;27.30;16.52;;;;;;;3.73;95.35;100375.00;6248512;28;20057;-76
2020/12/08 10:43:29;;;;;;;29.00;16.52;;;;;;;3.74;95.39;100374.94;6248467;28;20046;-76
2020/12/08 10:46:30;;;;;;;29.20;17.10;;;;;;;3.74;94.32;100368.91;6246429;28;20046;-76
2020/12/08 10:49:31;;;;;;;29.77;16.88;;;;;;;3.77;94.85;100371.38;6247977;28;20050;-77
2020/12/08 10:52:32;;;;;;;29.95;17.30;;;;;;;3.79;94.62;100367.84;6249273;28;20411;-77
2020/12/08 10:55:33;;;;;;;27.73;15.55;;;;;;;3.80;94.35;100371.28;6248690;28;20048;-77
2020/12/08 10:58:34;;;;;;;28.58;15.75;;;;;;;3.79;94.34;100367.84;6248446;28;20056;-76
2020/12/08 11:01:35;;;;;;;34.72;17.15;;;;;;;3.78;94.66;100358.34;6248448;28;20049;-77
2020/12/08 11:04:36;;;;;;;27.52;15.52;;;;;;;3.83;94.67;100362.56;6268423;22;20053;-80
2020/12/08 11:07:37;;;;;;;34.55;16.85;;;;;;;3.85;94.35;100356.38;6238919;28;20081;-74
2020/12/08 11:10:38;;;;;;;32.40;15.55;;;;;;;3.87;94.47;100356.38;6239205;28;20053;-79
2020/12/08 11:13:39;;;;;;;27.25;15.18;;;;;;;3.96;92.95;100359.50;6249237;28;20052;-79
2020/12/08 11:16:40;;;;;;;27.63;15.77;;;;;;;3.99;92.10;100364.59;6249487;28;20042;-79
2020/12/08 11:19:41;;;;;;;25.63;15.00;;;;;;;4.06;91.56;100363.50;6249262;28;20198;-76
2020/12/08 11:22:42;;;;;;;30.42;15.40;;;;;;;4.10;92.33;100366.88;6249115;28;20052;-77
2020/12/08 11:25:43;;;;;;;29.45;16.40;;;;;;;4.13;91.83;100366.75;6248435;28;20512;-76
2020/12/08 11:28:44;;;;;;;33.45;16.88;;;;;;;4.15;91.51;100364.13;6247739;28;20049;-75
2020/12/08 11:31:45;;;;;;;32.35;15.77;;;;;;;4.17;91.60;100360.53;6247947;28;20045;-76
2020/12/08 11:34:46;;;;;;;28.52;15.13;;;;;;;4.13;91.45;100360.69;6248132;28;20045;-73
2020/12/08 11:37:47;;;;;;;25.30;15.10;;;;;;;4.12;91.83;100357.25;6247900;28;20045;-79
2020/12/08 11:40:49;;;;;;;25.92;14.20;;;;;;;4.20;91.31;100355.25;6247785;28;20053;-78
2020/12/08 11:43:50;;;;;;;26.38;14.63;;;;;;;4.16;90.61;100345.84;6247746;28;20060;-76
2020/12/08 11:46:51;;;;;;;22.10;14.52;;;;;;;4.16;90.25;100355.41;6247765;28;20050;-76
2020/12/08 11:49:52;;;;;;;23.50;12.70;;;;;;;4.13;91.06;100361.53;6247723;28;20049;-81
2020/12/08 11:52:53;;;;;;;24.15;14.15;;;;;;;4.13;91.37;100352.91;6247991;28;20060;-78
2020/12/08 11:56:00;;;;;;;29.10;14.30;;;;;;;4.18;91.67;100357.06;6247798;28;20053;-77
2020/12/08 11:59:01;;;;;;;27.40;14.95;;;;;;;4.22;91.79;100353.44;6246806;28;20045;-77
2020/12/08 12:02:02;;;;;;;26.05;15.48;;;;;;;4.26;91.59;100352.44;6248176;28;20053;-77
2020/12/08 12:05:04;;;;;;;27.48;16.02;;;;;;;4.36;91.20;100357.31;6246602;28;20049;-77
2020/12/08 12:08:05;;;;;;;27.15;15.88;;;;;;;4.42;90.93;100357.97;6247189;28;20060;-78
2020/12/08 12:11:06;;;;;;;35.03;19.05;;;;;;;4.47;90.65;100363.88;6247260;28;20053;-78
2020/12/08 12:14:07;;;;;;;30.40;16.73;;;;;;;4.58;90.21;100363.50;6247061;28;20391;-77
2020/12/08 12:17:08;;;;;;;31.40;17.23;;;;;;;4.70;89.71;100357.00;6247021;28;20049;-76
2020/12/08 12:20:09;;;;;;;32.58;18.52;;;;;;;4.78;89.81;100348.03;6247186;28;20122;-77
2020/12/08 12:23:10;;;;;;;26.83;16.17;;;;;;;4.90;90.33;100357.13;6247187;28;20506;-76
2020/12/08 12:26:11;;;;;;;30.85;15.38;;;;;;;4.89;89.28;100359.81;6246860;28;20049;-76
2020/12/08 12:29:12;;;;;;;27.88;15.18;;;;;;;4.83;89.83;100351.31;6246552;28;20049;-75
2020/12/08 12:32:15;;;;;;;34.28;16.73;;;;;;;4.68;89.32;100354.47;6246731;28;20056;-79
2020/12/08 12:35:16;;;;;;;32.75;17.38;;;;;;;4.63;89.41;100360.72;6246540;28;20046;-75
2020/12/08 12:38:17;;;;;;;34.03;18.30;;;;;;;4.55;89.10;100348.84;6246421;28;20421;-78
2020/12/08 12:41:23;;;;;;;29.52;17.25;;;;;;;4.55;89.26;100353.22;6246619;28;20050;-78
2020/12/08 12:44:23;;;;;;;30.40;17.50;;;;;;;4.46;88.97;100359.56;6246756;28;20057;-78
2020/12/08 12:47:24;;;;;;;34.25;17.15;;;;;;;4.44;89.91;100343.16;6246708;28;20494;-77
2020/12/08 12:50:25;;;;;;;32.40;18.45;;;;;;;4.41;90.73;100350.25;6246136;28;20053;-76
2020/12/08 12:53:26;;;;;;;32.10;18.40;;;;;;;4.48;89.81;100349.94;6246879;28;20049;-76
2020/12/08 12:56:28;;;;;;;29.38;17.52;;;;;;;4.40;90.17;100344.16;6245965;28;20042;-77
2020/12/08 12:59:31;;;;;;;34.35;19.27;;;;;;;4.36;91.08;100345.19;6246401;28;20056;-78
2020/12/08 13:02:32;;;;;;;36.47;20.38;;;;;;;4.46;89.82;100341.38;6246606;28;20490;-77
2020/12/08 13:05:33;;;;;;;33.75;19.80;;;;;;;4.39;90.29;100337.25;6246087;28;20052;-78
2020/12/08 13:08:34;;;;;;;36.63;19.83;;;;;;;4.40;90.29;100332.91;6246313;28;20406;-77
2020/12/08 13:11:36;;;;;;;32.10;20.02;;;;;;;4.37;90.28;100333.88;6251546;28;20478;-77
2020/12/08 13:14:37;;;;;;;34.90;19.52;;;;;;;4.30;90.50;100334.97;6251561;28;20136;-77
2020/12/08 13:17:38;;;;;;;35.95;20.17;;;;;;;4.25;90.60;100329.94;6251277;28;20069;-77
2020/12/08 13:20:39;;;;;;;38.85;21.00;;;;;;;4.22;91.77;100337.81;6251187;28;20049;-77
2020/12/08 13:23:39;;;;;;;35.65;19.67;;;;;;;4.20;92.23;100324.03;6251360;28;20049;-78
2020/12/08 13:26:42;;;;;;;39.42;20.90;;;;;;;4.17;92.71;100331.94;6250915;28;20100;-76
2020/12/08 13:29:43;;;;;;;33.58;20.38;;;;;;;4.14;93.03;100333.81;6250760;28;20042;-77
2020/12/08 13:32:44;;;;;;;33.55;20.17;;;;;;;4.13;93.17;100332.09;6251418;28;20207;-77
2020/12/08 13:35:46;;;;;;;36.35;20.45;;;;;;;4.10;93.55;100338.25;6260795;28;20056;-77
2020/12/08 13:38:46;;;;;;;37.20;20.77;;;;;;;4.11;93.80;100346.91;6249244;28;20053;-78
2020/12/08 13:41:49;;;;;;;38.78;19.30;;;;;;;4.12;93.95;100336.44;6249956;28;20068;-78
2020/12/08 13:44:50;;;;;;;39.88;22.63;;;;;;;4.14;94.16;100341.63;6249220;28;20072;-76
2020/12/08 13:47:51;;;;;;;39.30;21.70;;;;;;;4.17;94.31;100341.50;6249560;28;20070;-78